createdAt,value
2018-06-12T00:00:57.039Z,73.40
2018-06-12T00:01:56.282Z,73.30
2018-06-12T00:02:56.294Z,73.54
2018-06-12T00:03:56.323Z,73.40
2018-06-12T00:04:56.255Z,73.44
2018-06-12T00:05:56.297Z,72.63
2018-06-12T00:07:16.817Z,72.83
2018-06-12T00:07:56.242Z,73.50
2018-06-12T00:08:56.234Z,73.50
2018-06-12T00:10:08.759Z,73.40
2018-06-12T00:10:56.228Z,73.59
2018-06-12T00:11:56.279Z,73.11
2018-06-12T00:12:56.195Z,73.59
2018-06-12T00:13:56.180Z,72.92
2018-06-12T00:14:56.167Z,73.11
2018-06-12T00:15:57.846Z,73.21
2018-06-12T00:16:56.370Z,73.59
2018-06-12T00:19:46.951Z,73.02
2018-06-12T00:20:45.800Z,73.30
2018-06-12T00:21:45.747Z,73.40
2018-06-12T00:22:46.567Z,73.21
2018-06-12T00:23:56.418Z,73.11
2018-06-12T00:26:20.572Z,74.04
2018-06-12T00:27:20.517Z,74.22
2018-06-12T00:28:20.524Z,73.75
2018-06-12T00:31:15.121Z,73.94
2018-06-12T00:32:08.699Z,74.04
2018-06-12T00:33:13.671Z,74.04
2018-06-12T00:40:46.026Z,73.94
2018-06-12T00:44:13.114Z,74.22
2018-06-12T00:45:11.154Z,73.94
2018-06-12T00:53:07.730Z,73.08
2018-06-12T00:54:07.679Z,73.17
2018-06-12T00:56:16.683Z,73.27
2018-06-12T00:58:01.586Z,73.36
2018-06-12T00:59:28.516Z,73.27
2018-06-12T00:59:56.271Z,73.08
2018-06-12T01:00:56.268Z,73.27
2018-06-12T01:01:56.282Z,73.08
2018-06-12T01:21:50.397Z,72.41
2018-06-12T01:22:39.423Z,72.44
2018-06-12T01:23:39.471Z,71.83
2018-06-12T01:24:39.403Z,72.22
2018-06-12T01:25:39.670Z,72.12
2018-06-12T01:26:39.479Z,72.63
2018-06-12T01:27:39.461Z,72.69
2018-06-12T01:28:39.372Z,72.60
2018-06-12T01:29:39.429Z,72.60
2018-06-12T01:30:39.339Z,72.63
2018-06-12T01:31:39.334Z,72.79
2018-06-12T01:32:39.316Z,72.60
2018-06-12T01:33:39.349Z,72.41
2018-06-12T01:34:39.346Z,72.02
2018-06-12T01:35:39.309Z,72.50
2018-06-12T01:36:39.266Z,72.25
2018-06-12T01:37:39.281Z,72.22
2018-06-12T01:38:39.265Z,71.64
2018-06-12T01:39:39.344Z,71.77
2018-06-12T01:40:39.254Z,71.87
2018-06-12T01:44:41.438Z,71.83
2018-06-12T01:45:34.026Z,72.31
2018-06-12T01:46:34.011Z,72.41
2018-06-12T01:47:34.020Z,72.16
2018-06-12T01:48:34.136Z,71.68
2018-06-12T01:50:11.447Z,72.54
2018-06-12T01:50:34.459Z,72.06
2018-06-12T01:51:33.929Z,72.16
2018-06-12T01:52:33.970Z,72.16
2018-06-12T01:53:34.436Z,72.16
2018-06-12T01:57:26.985Z,72.22
2018-06-12T01:58:26.915Z,72.31
2018-06-12T01:59:26.956Z,72.12
2018-06-12T02:00:26.907Z,72.34
2018-06-12T02:02:54.178Z,72.22
2018-06-12T02:03:21.759Z,71.83
2018-06-12T02:03:54.692Z,71.73
2018-06-12T02:04:54.673Z,71.87
2018-06-12T02:05:54.671Z,71.73
2018-06-12T02:06:54.669Z,71.64
2018-06-12T02:07:54.706Z,71.73
2018-06-12T02:08:54.660Z,71.73
2018-06-12T02:09:54.654Z,71.83
2018-06-12T02:10:54.615Z,71.77
2018-06-12T02:11:54.952Z,71.87
2018-06-12T02:12:54.618Z,71.93
2018-06-12T02:13:54.603Z,71.97
2018-06-12T02:14:54.581Z,71.87
2018-06-12T02:15:54.577Z,72.02
2018-06-12T02:16:54.555Z,71.39
2018-06-12T02:17:54.556Z,71.01
2018-06-12T02:18:54.596Z,70.72
2018-06-12T02:19:54.540Z,71.01
2018-06-12T02:20:54.530Z,70.81
2018-06-12T02:21:54.519Z,71.11
2018-06-12T02:22:54.509Z,70.81
2018-06-12T02:23:54.526Z,70.43
2018-06-12T02:24:54.483Z,71.11
2018-06-12T02:25:54.482Z,71.68
2018-06-12T02:26:54.467Z,71.48
2018-06-12T02:27:54.462Z,71.36
2018-06-12T02:28:55.646Z,71.11
2018-06-12T02:29:54.451Z,71.26
2018-06-12T02:30:54.436Z,71.55
2018-06-12T02:31:54.404Z,72.44
2018-06-12T02:32:54.410Z,71.64
2018-06-12T02:33:54.431Z,71.77
2018-06-12T02:34:54.384Z,72.06
2018-06-12T02:35:54.377Z,71.87
2018-06-12T02:36:54.376Z,71.93
2018-06-12T02:37:54.489Z,72.98
2018-06-12T02:38:54.375Z,72.50
2018-06-12T02:39:54.335Z,72.31
2018-06-12T02:40:54.313Z,71.83
2018-06-12T02:41:54.324Z,72.22
2018-06-12T02:42:57.290Z,72.02
2018-06-12T02:43:54.324Z,71.93
2018-06-12T02:44:54.289Z,71.55
2018-06-12T02:45:54.283Z,72.22
2018-06-12T02:46:54.251Z,72.31
2018-06-12T02:47:54.260Z,72.31
2018-06-12T02:48:54.383Z,72.12
2018-06-12T02:49:54.220Z,72.02
2018-06-12T02:50:54.213Z,72.22
2018-06-12T02:51:54.229Z,72.02
2018-06-12T02:52:54.205Z,72.22
2018-06-12T02:53:54.195Z,72.22
2018-06-12T02:54:54.230Z,71.93
2018-06-12T02:55:54.387Z,71.73
2018-06-12T02:56:54.167Z,71.68
2018-06-12T02:57:54.169Z,71.87
2018-06-12T02:58:54.268Z,72.16
2018-06-12T02:59:54.189Z,71.77
2018-06-12T03:00:54.117Z,71.97
2018-06-12T03:01:54.123Z,71.83
2018-06-12T03:02:54.114Z,71.83
2018-06-12T03:03:54.207Z,71.77
2018-06-12T03:04:54.074Z,71.64
2018-06-12T03:05:54.157Z,71.77
2018-06-12T03:06:54.053Z,71.87
2018-06-12T03:07:54.048Z,72.31
2018-06-12T03:08:54.052Z,72.16
2018-06-12T03:09:54.022Z,71.64
2018-06-12T03:10:54.021Z,71.64
2018-06-12T03:11:54.045Z,71.73
2018-06-12T03:12:54.028Z,72.25
2018-06-12T03:13:53.989Z,71.87
2018-06-12T03:14:53.978Z,71.68
2018-06-12T03:15:53.966Z,71.58
2018-06-12T03:16:53.981Z,71.97
2018-06-12T03:17:53.988Z,72.06
2018-06-12T03:18:53.939Z,71.97
2018-06-12T03:19:53.923Z,71.93
2018-06-12T03:20:53.950Z,71.97
2018-06-12T03:21:53.914Z,71.68
2018-06-12T03:22:53.891Z,71.68
2018-06-12T03:23:53.892Z,71.97
2018-06-12T03:24:53.945Z,71.48
2018-06-12T03:25:53.869Z,71.39
2018-06-12T03:26:53.864Z,71.77
2018-06-12T03:27:53.878Z,71.77
2018-06-12T03:28:53.903Z,71.87
2018-06-12T03:29:55.297Z,71.97
2018-06-12T03:30:53.855Z,72.16
2018-06-12T03:31:53.817Z,71.93
2018-06-12T03:32:53.789Z,72.41
2018-06-12T03:33:53.835Z,72.16
2018-06-12T03:35:21.090Z,72.16
2018-06-12T03:35:53.752Z,71.64
2018-06-12T03:36:53.781Z,71.64
2018-06-12T03:37:53.723Z,71.64
2018-06-12T03:38:53.727Z,71.93
2018-06-12T03:39:53.722Z,71.83
2018-06-12T03:40:53.854Z,71.97
2018-06-12T03:41:53.705Z,71.93
2018-06-12T03:42:53.700Z,71.93
2018-06-12T03:43:53.762Z,72.12
2018-06-12T03:44:53.686Z,71.93
2018-06-12T03:45:53.661Z,71.73
2018-06-12T03:46:53.703Z,71.45
2018-06-12T03:47:53.631Z,71.68
2018-06-12T03:48:53.636Z,71.77
2018-06-12T03:49:53.629Z,71.07
2018-06-12T03:50:53.932Z,71.26
2018-06-12T03:51:53.599Z,71.26
2018-06-12T03:52:53.589Z,71.55
2018-06-12T03:53:53.582Z,71.73
2018-06-12T03:54:53.577Z,71.83
2018-06-12T03:55:53.630Z,71.16
2018-06-12T03:56:53.544Z,71.36
2018-06-12T03:57:53.544Z,71.73
2018-06-12T03:58:53.552Z,71.64
2018-06-12T03:59:53.521Z,71.64
2018-06-12T04:00:53.518Z,71.64
2018-06-12T04:01:53.791Z,71.64
2018-06-12T04:02:53.481Z,71.64
2018-06-12T04:03:53.485Z,71.93
2018-06-12T04:04:53.471Z,71.16
2018-06-12T04:05:53.451Z,71.36
2018-06-12T04:06:53.460Z,71.73
2018-06-12T04:07:53.478Z,71.73
2018-06-12T04:08:53.431Z,71.64
2018-06-12T04:09:53.428Z,71.93
2018-06-12T04:10:53.414Z,71.73
2018-06-12T04:11:53.402Z,71.83
2018-06-12T04:12:53.453Z,71.83
2018-06-12T04:13:53.365Z,71.83
2018-06-12T04:14:53.397Z,71.45
2018-06-12T04:15:53.363Z,71.83
2018-06-12T04:16:53.356Z,71.45
2018-06-12T04:17:53.333Z,71.64
2018-06-12T04:18:53.744Z,71.73
2018-06-12T04:19:53.343Z,71.45
2018-06-12T04:20:53.310Z,71.45
2018-06-12T04:21:53.290Z,71.36
2018-06-12T04:22:53.286Z,71.93
2018-06-12T04:23:53.278Z,71.64
2018-06-12T04:24:53.270Z,71.36
2018-06-12T04:25:53.257Z,71.36
2018-06-12T04:26:53.237Z,71.36
2018-06-12T04:27:53.241Z,71.36
2018-06-12T04:28:53.428Z,71.36
2018-06-12T04:29:53.209Z,70.87
2018-06-12T04:30:53.260Z,70.97
2018-06-12T04:31:53.205Z,71.36
2018-06-12T04:32:53.175Z,70.87
2018-06-12T04:33:53.177Z,71.26
2018-06-12T04:34:53.161Z,71.30
2018-06-12T04:35:53.149Z,71.20
2018-06-12T04:36:53.149Z,71.01
2018-06-12T04:37:53.131Z,70.91
2018-06-12T04:38:53.121Z,70.81
2018-06-12T04:39:53.104Z,70.53
2018-06-12T04:40:53.130Z,70.43
2018-06-12T04:41:53.108Z,70.15
2018-06-12T04:42:53.097Z,70.43
2018-06-12T04:43:53.069Z,70.81
2018-06-12T04:44:53.060Z,70.91
2018-06-12T04:45:53.124Z,71.30
2018-06-12T04:46:53.066Z,71.01
2018-06-12T04:47:53.033Z,71.01
2018-06-12T04:48:53.021Z,70.91
2018-06-12T04:49:53.010Z,70.43
2018-06-12T04:50:52.997Z,70.34
2018-06-12T04:51:52.997Z,70.43
2018-06-12T04:52:52.986Z,70.43
2018-06-12T04:53:53.003Z,70.34
2018-06-12T04:54:52.966Z,70.34
2018-06-12T04:55:52.951Z,70.34
2018-06-12T04:56:52.938Z,70.53
2018-06-12T04:57:53.145Z,70.72
2018-06-12T04:58:53.276Z,70.37
2018-06-12T04:59:52.913Z,70.24
2018-06-12T05:00:52.903Z,70.62
2018-06-12T05:01:52.898Z,70.24
2018-06-12T05:02:52.894Z,70.24
2018-06-12T05:03:52.901Z,70.53
2018-06-12T05:04:52.881Z,70.43
2018-06-12T05:05:52.877Z,70.28
2018-06-12T05:06:52.838Z,70.28
2018-06-12T05:07:52.832Z,70.47
2018-06-12T05:08:52.825Z,70.56
2018-06-12T05:09:52.818Z,70.56
2018-06-12T05:10:52.932Z,70.66
2018-06-12T05:11:52.801Z,70.56
2018-06-12T05:12:52.787Z,70.56
2018-06-12T05:13:52.776Z,70.34
2018-06-12T05:14:52.768Z,70.47
2018-06-12T05:15:52.759Z,70.56
2018-06-12T05:16:52.758Z,70.72
2018-06-12T05:17:52.740Z,70.76
2018-06-12T05:18:52.746Z,70.53
2018-06-12T05:19:52.773Z,70.66
2018-06-12T05:20:52.712Z,70.05
2018-06-12T05:21:52.758Z,70.34
2018-06-12T05:22:52.696Z,70.47
2018-06-12T05:23:52.682Z,69.86
2018-06-12T05:24:52.680Z,70.15
2018-06-12T05:25:52.665Z,70.34
2018-06-12T05:26:52.660Z,70.24
2018-06-12T05:27:52.802Z,70.05
2018-06-12T05:28:52.641Z,70.53
2018-06-12T05:29:52.633Z,70.72
2018-06-12T05:30:52.603Z,70.53
2018-06-12T05:31:52.596Z,69.95
2018-06-12T05:32:52.593Z,70.47
2018-06-12T05:33:52.613Z,70.09
2018-06-12T05:34:52.574Z,70.18
2018-06-12T05:35:52.561Z,70.09
2018-06-12T05:36:52.772Z,69.89
2018-06-12T05:37:52.550Z,69.80
2018-06-12T05:38:52.546Z,69.80
2018-06-12T05:39:52.520Z,69.80
2018-06-12T05:40:52.514Z,69.60
2018-06-12T05:41:52.515Z,69.70
2018-06-12T05:42:52.531Z,69.42
2018-06-12T05:43:52.493Z,69.42
2018-06-12T05:44:52.491Z,70.28
2018-06-12T05:45:52.479Z,70.28
2018-06-12T05:46:52.518Z,70.28
2018-06-12T05:47:52.465Z,70.28
2018-06-12T05:48:52.474Z,70.24
2018-06-12T05:49:52.473Z,70.53
2018-06-12T05:50:52.412Z,70.66
2018-06-12T05:51:52.411Z,69.89
2018-06-12T05:52:52.410Z,69.95
2018-06-12T05:53:52.395Z,69.99
2018-06-12T05:54:52.428Z,69.89
2018-06-12T05:55:52.378Z,70.15
2018-06-12T05:56:52.425Z,70.18
2018-06-12T05:57:52.358Z,70.09
2018-06-12T05:58:52.352Z,70.85
2018-06-12T05:59:52.340Z,69.89
2018-06-12T06:00:52.342Z,70.09
2018-06-12T06:01:52.320Z,69.70
2018-06-12T06:02:52.339Z,69.42
2018-06-12T06:03:52.298Z,70.09
2018-06-12T06:04:52.296Z,70.28
2018-06-12T06:05:52.621Z,70.09
2018-06-12T06:06:52.276Z,69.60
2018-06-12T06:07:52.260Z,69.89
2018-06-12T06:08:52.258Z,69.89
2018-06-12T06:09:52.250Z,70.09
2018-06-12T06:10:52.233Z,69.23
2018-06-12T06:11:52.259Z,69.42
2018-06-12T06:12:52.257Z,69.42
2018-06-12T06:13:52.214Z,70.09
2018-06-12T06:14:52.206Z,69.99
2018-06-12T06:15:52.493Z,69.70
2018-06-12T06:16:52.217Z,70.09
2018-06-12T06:17:52.175Z,69.42
2018-06-12T06:18:52.163Z,69.60
2018-06-12T06:19:52.147Z,69.60
2018-06-12T06:20:52.152Z,70.37
2018-06-12T06:21:52.162Z,69.70
2018-06-12T06:22:52.128Z,69.89
2018-06-12T06:23:52.143Z,69.51
2018-06-12T06:24:52.104Z,69.70
2018-06-12T06:25:52.088Z,69.60
2018-06-12T06:26:52.084Z,69.32
2018-06-12T06:27:52.228Z,70.09
2018-06-12T06:28:52.070Z,69.89
2018-06-12T06:29:52.052Z,70.28
2018-06-12T06:30:52.044Z,70.18
2018-06-12T06:31:52.041Z,70.47
2018-06-12T06:32:52.032Z,70.56
2018-06-12T06:33:52.022Z,70.28
2018-06-12T06:34:52.000Z,70.18
2018-06-12T06:35:51.996Z,70.18
2018-06-12T06:36:52.758Z,69.99
2018-06-12T06:37:51.987Z,69.60
2018-06-12T06:38:52.112Z,69.70
2018-06-12T06:39:51.967Z,69.51
2018-06-12T06:40:51.958Z,69.60
2018-06-12T06:41:51.942Z,69.60
2018-06-12T06:42:51.928Z,69.23
2018-06-12T06:43:51.930Z,69.42
2018-06-12T06:44:51.949Z,69.60
2018-06-12T06:45:51.917Z,69.42
2018-06-12T06:46:51.897Z,69.60
2018-06-12T06:47:51.881Z,69.32
2018-06-12T06:48:51.874Z,69.51
2018-06-12T06:49:51.881Z,69.60
2018-06-12T06:50:51.891Z,69.32
2018-06-12T06:51:51.853Z,69.51
2018-06-12T06:52:52.047Z,69.60
2018-06-12T06:53:51.832Z,69.32
2018-06-12T06:54:51.811Z,69.93
2018-06-12T06:55:51.824Z,69.35
2018-06-12T06:56:51.813Z,69.45
2018-06-12T06:57:51.829Z,68.97
2018-06-12T06:58:51.881Z,68.97
2018-06-12T06:59:51.783Z,68.87
2018-06-12T07:00:51.774Z,68.78
2018-06-12T07:01:51.762Z,68.40
2018-06-12T07:02:51.766Z,68.68
2018-06-12T07:03:51.755Z,68.78
2018-06-12T07:04:51.801Z,68.59
2018-06-12T07:05:51.721Z,68.97
2018-06-12T07:06:51.707Z,68.11
2018-06-12T07:07:51.731Z,67.72
2018-06-12T07:08:51.751Z,67.72
2018-06-12T07:09:51.706Z,67.82
2018-06-12T07:10:51.692Z,67.72
2018-06-12T07:11:51.672Z,67.72
2018-06-12T07:12:51.662Z,68.40
2018-06-12T07:13:51.659Z,68.21
2018-06-12T07:14:51.706Z,68.49
2018-06-12T07:15:51.645Z,68.30
2018-06-12T07:16:51.630Z,68.49
2018-06-12T07:17:51.627Z,67.63
2018-06-12T07:18:51.604Z,66.48
2018-06-12T07:19:51.740Z,66.96
2018-06-12T07:20:51.595Z,66.96
2018-06-12T07:21:51.596Z,67.05
2018-06-12T07:22:51.580Z,67.82
2018-06-12T07:23:51.563Z,67.72
2018-06-12T07:24:51.558Z,67.63
2018-06-12T07:25:51.556Z,67.54
2018-06-12T07:26:51.532Z,67.54
2018-06-12T07:27:51.539Z,67.25
2018-06-12T07:28:51.516Z,67.72
2018-06-12T07:29:51.503Z,67.72
2018-06-12T07:30:52.096Z,67.82
2018-06-12T07:31:51.512Z,67.44
2018-06-12T07:32:51.488Z,68.01
2018-06-12T07:33:51.473Z,67.76
2018-06-12T07:34:51.559Z,67.57
2018-06-12T07:35:51.463Z,67.09
2018-06-12T07:36:51.508Z,66.61
2018-06-12T07:37:51.504Z,66.22
2018-06-12T07:38:51.462Z,66.32
2018-06-12T07:39:51.420Z,66.42
2018-06-12T07:40:51.420Z,66.13
2018-06-12T07:41:51.546Z,66.61
2018-06-12T07:42:51.409Z,66.61
2018-06-12T07:43:51.386Z,66.61
2018-06-12T07:44:51.393Z,66.42
2018-06-12T07:45:51.374Z,66.42
2018-06-12T07:46:51.370Z,65.84
2018-06-12T07:47:51.401Z,65.36
2018-06-12T07:48:51.380Z,65.08
2018-06-12T07:49:51.356Z,65.26
2018-06-12T07:50:51.351Z,65.26
2018-06-12T07:51:51.325Z,65.84
2018-06-12T07:52:51.345Z,65.84
2018-06-12T07:53:51.337Z,65.84
2018-06-12T07:54:51.298Z,66.42
2018-06-12T07:55:51.312Z,66.45
2018-06-12T07:56:51.290Z,66.64
2018-06-12T07:57:51.296Z,65.88
2018-06-12T07:58:51.303Z,65.68
2018-06-12T07:59:51.273Z,65.59
2018-06-12T08:00:51.279Z,65.30
2018-06-12T08:01:51.276Z,65.01
2018-06-12T08:02:51.236Z,64.92
2018-06-12T08:03:51.287Z,64.53
2018-06-12T08:04:51.214Z,64.05
2018-06-12T08:05:51.208Z,64.05
2018-06-12T08:06:51.194Z,63.38
2018-06-12T08:07:51.201Z,63.76
2018-06-12T08:08:51.199Z,63.86
2018-06-12T08:09:51.241Z,63.92
2018-06-12T08:10:51.159Z,63.83
2018-06-12T08:11:51.170Z,63.76
2018-06-12T08:12:51.250Z,63.19
2018-06-12T08:13:51.150Z,63.86
2018-06-12T08:14:51.141Z,64.25
2018-06-12T08:15:51.146Z,64.72
2018-06-12T08:16:51.144Z,64.05
2018-06-12T08:17:51.126Z,64.15
2018-06-12T08:18:51.143Z,64.25
2018-06-12T08:19:51.092Z,64.05
2018-06-12T08:20:51.084Z,64.34
2018-06-12T08:21:51.092Z,64.25
2018-06-12T08:22:51.078Z,62.71
2018-06-12T08:23:51.079Z,63.67
2018-06-12T08:24:51.073Z,63.76
2018-06-12T08:25:51.057Z,64.25
2018-06-12T08:26:51.054Z,64.56
2018-06-12T08:27:51.051Z,64.72
2018-06-12T08:28:51.060Z,64.15
2018-06-12T08:29:51.155Z,64.37
2018-06-12T08:30:51.012Z,63.42
2018-06-12T08:31:51.018Z,63.51
2018-06-12T08:32:51.008Z,62.26
2018-06-12T08:33:51.030Z,63.03
2018-06-12T08:34:51.010Z,63.22
2018-06-12T08:35:50.973Z,63.22
2018-06-12T08:36:51.040Z,63.03
2018-06-12T08:37:50.957Z,62.93
2018-06-12T08:38:50.956Z,62.16
2018-06-12T08:39:50.990Z,62.36
2018-06-12T08:40:51.106Z,62.55
2018-06-12T08:41:50.940Z,62.55
2018-06-12T08:42:50.933Z,62.36
2018-06-12T08:43:50.915Z,62.74
2018-06-12T08:44:50.913Z,63.32
2018-06-12T08:45:50.909Z,63.12
2018-06-12T08:46:50.898Z,63.60
2018-06-12T08:47:50.936Z,62.93
2018-06-12T08:48:50.874Z,63.03
2018-06-12T08:49:50.877Z,63.03
2018-06-12T08:50:50.869Z,63.03
2018-06-12T08:51:50.861Z,63.00
2018-06-12T08:52:50.861Z,63.29
2018-06-12T08:53:50.841Z,63.09
2018-06-12T08:54:50.855Z,62.52
2018-06-12T08:55:50.833Z,63.09
2018-06-12T08:56:50.840Z,62.52
2018-06-12T08:57:50.811Z,63.00
2018-06-12T08:58:50.811Z,63.76
2018-06-12T08:59:50.799Z,64.34
2018-06-12T09:00:50.791Z,63.96
2018-06-12T09:01:50.774Z,64.05
2018-06-12T09:02:50.818Z,64.05
2018-06-12T09:03:50.763Z,64.34
2018-06-12T09:04:50.748Z,64.43
2018-06-12T09:05:50.783Z,64.05
2018-06-12T09:06:50.747Z,64.15
2018-06-12T09:07:50.735Z,63.86
2018-06-12T09:08:50.749Z,64.43
2018-06-12T09:09:50.720Z,65.01
2018-06-12T09:10:50.719Z,64.53
2018-06-12T09:11:50.699Z,64.53
2018-06-12T09:12:50.769Z,64.15
2018-06-12T09:13:50.707Z,64.66
2018-06-12T09:14:50.668Z,64.34
2018-06-12T09:15:50.679Z,64.56
2018-06-12T09:16:50.669Z,64.56
2018-06-12T09:17:50.734Z,64.47
2018-06-12T09:18:50.644Z,63.99
2018-06-12T09:19:50.640Z,64.18
2018-06-12T09:20:50.636Z,64.09
2018-06-12T09:21:50.658Z,64.37
2018-06-12T09:22:50.614Z,64.66
2018-06-12T09:23:50.612Z,64.09
2018-06-12T09:24:50.598Z,64.37
2018-06-12T09:25:50.598Z,64.76
2018-06-12T09:26:50.581Z,64.66
2018-06-12T09:27:50.596Z,64.66
2018-06-12T09:28:50.705Z,64.18
2018-06-12T09:29:50.556Z,64.09
2018-06-12T09:30:50.542Z,64.09
2018-06-12T09:31:50.539Z,63.89
2018-06-12T09:32:50.533Z,63.60
2018-06-12T09:33:50.537Z,63.12
2018-06-12T09:34:50.526Z,63.79
2018-06-12T09:35:50.513Z,63.70
2018-06-12T09:36:50.498Z,63.99
2018-06-12T09:37:50.484Z,64.09
2018-06-12T09:38:50.482Z,64.37
2018-06-12T09:39:50.911Z,63.42
2018-06-12T09:40:50.466Z,63.42
2018-06-12T09:41:50.463Z,62.84
2018-06-12T09:42:50.470Z,62.74
2018-06-12T09:43:50.452Z,62.55
2018-06-12T09:44:50.450Z,62.36
2018-06-12T09:45:50.454Z,62.16
2018-06-12T09:46:50.426Z,63.45
2018-06-12T09:47:50.423Z,62.96
2018-06-12T09:48:50.421Z,63.54
2018-06-12T09:49:50.406Z,63.06
2018-06-12T09:50:50.437Z,62.29
2018-06-12T09:51:50.423Z,62.48
2018-06-12T09:52:50.376Z,62.77
2018-06-12T09:53:50.378Z,62.58
2018-06-12T09:54:50.372Z,62.77
2018-06-12T09:55:50.384Z,62.77
2018-06-12T09:56:50.374Z,62.90
2018-06-12T09:57:50.429Z,63.19
2018-06-12T09:58:50.335Z,62.32
2018-06-12T09:59:50.329Z,62.61
2018-06-12T10:00:50.331Z,62.55
2018-06-12T10:01:50.343Z,61.23
2018-06-12T10:02:50.377Z,59.79
2018-06-12T10:03:50.299Z,58.70
2018-06-12T10:04:50.305Z,59.57
2018-06-12T10:05:50.298Z,59.38
2018-06-12T10:06:50.278Z,58.51
2018-06-12T10:07:50.325Z,58.77
2018-06-12T10:08:50.316Z,58.96
2018-06-12T10:09:50.264Z,60.24
2018-06-12T10:10:50.265Z,61.20
2018-06-12T10:11:50.322Z,60.85
2018-06-12T10:12:50.255Z,60.85
2018-06-12T10:13:50.388Z,60.01
2018-06-12T10:14:50.231Z,58.86
2018-06-12T10:15:50.240Z,58.40
2018-06-12T10:16:50.225Z,57.54
2018-06-12T10:17:50.228Z,57.73
2018-06-12T10:18:50.232Z,56.80
2018-06-12T10:19:50.216Z,56.25
2018-06-12T10:20:50.203Z,57.62
2018-06-12T10:21:50.201Z,57.65
2018-06-12T10:22:50.203Z,54.98
2018-06-12T10:23:50.204Z,54.05
2018-06-12T10:24:50.240Z,53.78
2018-06-12T10:25:50.208Z,53.88
2018-06-12T10:26:50.200Z,53.97
2018-06-12T10:27:50.201Z,53.59
2018-06-12T10:28:50.184Z,51.44
2018-06-12T10:29:50.301Z,49.12
2018-06-12T10:30:50.185Z,51.05
2018-06-12T10:31:50.185Z,51.22
2018-06-12T10:32:50.186Z,50.04
2018-06-12T10:33:50.212Z,50.13
2018-06-12T10:34:50.192Z,50.01
2018-06-12T10:35:50.184Z,50.40
2018-06-12T10:36:50.182Z,51.43
2018-06-12T10:37:50.171Z,52.20
2018-06-12T10:38:50.174Z,52.56
2018-06-12T10:39:50.180Z,53.23
2018-06-12T10:40:51.229Z,51.86
2018-06-12T10:41:50.171Z,51.96
2018-06-12T10:42:50.174Z,53.81
2018-06-12T10:43:50.157Z,51.82
2018-06-12T10:44:50.158Z,51.62
2018-06-12T10:45:50.177Z,51.34
2018-06-12T10:46:50.140Z,51.72
2018-06-12T10:47:50.159Z,52.40
2018-06-12T10:48:50.182Z,49.87
2018-06-12T10:49:50.142Z,49.87
2018-06-12T10:50:50.139Z,50.42
2018-06-12T10:51:50.140Z,51.19
2018-06-12T10:52:50.441Z,51.09
2018-06-12T10:53:50.126Z,51.93
2018-06-12T10:54:50.123Z,52.42
2018-06-12T10:55:50.111Z,53.38
2018-06-12T10:56:50.104Z,53.16
2018-06-12T10:57:50.098Z,53.64
2018-06-12T10:58:50.132Z,55.01
2018-06-12T10:59:50.094Z,55.81
2018-06-12T11:00:50.099Z,55.81
2018-06-12T11:01:50.082Z,54.39
2018-06-12T11:02:50.074Z,55.29
2018-06-12T11:03:50.063Z,54.80
2018-06-12T11:04:50.082Z,54.90
2018-06-12T11:05:50.062Z,54.06
2018-06-12T11:06:50.055Z,51.65
2018-06-12T11:07:50.052Z,50.42
2018-06-12T11:08:50.051Z,49.65
2018-06-12T11:09:50.047Z,48.97
2018-06-12T11:10:50.096Z,49.17
2018-06-12T11:11:50.046Z,48.76
2018-06-12T11:12:50.051Z,49.73
2018-06-12T11:13:50.046Z,50.78
2018-06-12T11:14:50.063Z,51.14
2018-06-12T11:15:50.365Z,51.05
2018-06-12T11:16:50.030Z,50.85
2018-06-12T11:17:50.022Z,50.66
2018-06-12T11:18:50.023Z,51.12
2018-06-12T11:19:50.009Z,51.31
2018-06-12T11:20:50.050Z,51.60
2018-06-12T11:21:50.024Z,51.96
2018-06-12T11:22:50.010Z,51.67
2018-06-12T11:23:50.003Z,51.86
2018-06-12T11:24:50.017Z,52.25
2018-06-12T11:25:49.988Z,53.02
2018-06-12T11:26:50.026Z,52.73
2018-06-12T11:27:49.995Z,52.51
2018-06-12T11:28:49.980Z,52.32
2018-06-12T11:29:49.973Z,53.28
2018-06-12T11:30:49.964Z,53.76
2018-06-12T11:31:49.981Z,54.05
2018-06-12T11:32:49.962Z,54.05
2018-06-12T11:33:49.954Z,53.76
2018-06-12T11:34:49.952Z,53.47
2018-06-12T11:35:49.945Z,54.53
2018-06-12T11:36:49.975Z,53.66
2018-06-12T11:37:49.973Z,54.34
2018-06-12T11:38:49.928Z,54.43
2018-06-12T11:39:49.929Z,54.91
2018-06-12T11:40:49.912Z,54.43
2018-06-12T11:41:49.921Z,55.30
2018-06-12T11:42:49.957Z,55.23
2018-06-12T11:43:50.034Z,55.23
2018-06-12T11:44:50.173Z,55.04
2018-06-12T11:45:49.895Z,54.36
2018-06-12T11:46:49.875Z,53.40
2018-06-12T11:47:49.877Z,52.63
2018-06-12T11:48:49.878Z,52.44
2018-06-12T11:49:49.878Z,52.70
2018-06-12T11:50:49.863Z,52.70
2018-06-12T11:51:49.867Z,53.19
2018-06-12T11:52:49.881Z,53.19
2018-06-12T11:53:49.848Z,53.76
2018-06-12T11:54:49.857Z,53.76
2018-06-12T11:55:49.839Z,53.38
2018-06-12T11:56:49.843Z,54.14
2018-06-12T11:57:49.831Z,54.05
2018-06-12T11:58:49.809Z,53.57
2018-06-12T11:59:49.845Z,54.05
2018-06-12T12:00:49.811Z,53.19
2018-06-12T12:01:49.824Z,53.38
2018-06-12T12:02:49.802Z,53.66
2018-06-12T12:03:49.795Z,53.28
2018-06-12T12:04:49.808Z,54.05
2018-06-12T12:05:49.815Z,54.53
2018-06-12T12:06:49.768Z,53.76
2018-06-12T12:07:49.766Z,54.05
2018-06-12T12:08:49.752Z,53.76
2018-06-12T12:09:49.788Z,54.82
2018-06-12T12:10:49.748Z,54.24
2018-06-12T12:11:49.953Z,53.66
2018-06-12T12:12:49.732Z,54.12
2018-06-12T12:13:49.723Z,53.54
2018-06-12T12:14:49.730Z,53.83
2018-06-12T12:15:49.720Z,54.41
2018-06-12T12:16:49.759Z,55.18
2018-06-12T12:17:49.698Z,54.50
2018-06-12T12:18:49.701Z,54.41
2018-06-12T12:19:49.752Z,54.31
2018-06-12T12:20:49.693Z,54.69
2018-06-12T12:21:49.687Z,55.08
2018-06-12T12:22:49.672Z,55.66
2018-06-12T12:23:49.672Z,55.76
2018-06-12T12:24:49.652Z,55.76
2018-06-12T12:25:49.699Z,55.66
2018-06-12T12:26:49.649Z,55.94
2018-06-12T12:27:49.634Z,55.76
2018-06-12T12:28:49.635Z,56.16
2018-06-12T12:29:49.688Z,54.69
2018-06-12T12:30:49.620Z,54.99
2018-06-12T12:31:49.615Z,55.18
2018-06-12T12:32:49.605Z,54.99
2018-06-12T12:33:49.603Z,55.46
2018-06-12T12:34:49.592Z,55.94
2018-06-12T12:35:49.593Z,56.04
2018-06-12T12:36:49.629Z,56.33
2018-06-12T12:37:49.564Z,56.43
2018-06-12T12:38:49.566Z,56.16
2018-06-12T12:39:49.573Z,55.66
2018-06-12T12:40:49.598Z,55.01
2018-06-12T12:41:49.547Z,54.99
2018-06-12T12:42:49.579Z,55.66
2018-06-12T12:43:49.533Z,55.18
2018-06-12T12:44:49.519Z,55.76
2018-06-12T12:45:49.515Z,56.23
2018-06-12T12:46:49.554Z,56.43
2018-06-12T12:47:49.506Z,56.52
2018-06-12T12:48:49.535Z,55.85
2018-06-12T12:49:49.500Z,55.85
2018-06-12T12:50:49.512Z,55.66
2018-06-12T12:51:49.494Z,55.56
2018-06-12T12:52:50.425Z,56.04
2018-06-12T12:53:49.579Z,56.33
2018-06-12T12:54:49.470Z,55.94
2018-06-12T12:55:49.465Z,56.52
2018-06-12T12:56:49.451Z,56.52
2018-06-12T12:57:49.451Z,56.59
2018-06-12T12:58:49.481Z,56.91
2018-06-12T12:59:49.469Z,56.30
2018-06-12T13:00:49.412Z,57.00
2018-06-12T13:01:49.429Z,56.91
2018-06-12T13:02:49.408Z,56.14
2018-06-12T13:03:49.457Z,56.78
2018-06-12T13:04:49.405Z,56.21
2018-06-12T13:05:49.413Z,56.98
2018-06-12T13:06:49.385Z,56.68
2018-06-12T13:07:49.383Z,56.30
2018-06-12T13:08:49.414Z,57.07
2018-06-12T13:09:49.388Z,56.68
2018-06-12T13:10:49.395Z,56.98
2018-06-12T13:11:49.355Z,56.78
2018-06-12T13:12:49.335Z,57.26
2018-06-12T13:13:49.396Z,57.26
2018-06-12T13:14:49.333Z,58.03
2018-06-12T13:15:49.316Z,57.75
2018-06-12T13:16:49.319Z,57.17
2018-06-12T13:17:49.306Z,57.36
2018-06-12T13:18:49.319Z,57.26
2018-06-12T13:19:49.334Z,57.45
2018-06-12T13:20:49.297Z,57.65
2018-06-12T13:21:49.292Z,57.36
2018-06-12T13:22:49.272Z,57.26
2018-06-12T13:23:49.316Z,57.65
2018-06-12T13:24:49.264Z,57.36
2018-06-12T13:25:49.256Z,57.36
2018-06-12T13:26:49.249Z,57.55
2018-06-12T13:27:49.237Z,58.06
2018-06-12T13:28:49.298Z,57.20
2018-06-12T13:29:49.230Z,57.29
2018-06-12T13:30:49.220Z,57.29
2018-06-12T13:31:49.224Z,57.29
2018-06-12T13:32:49.208Z,56.52
2018-06-12T13:33:49.295Z,56.91
2018-06-12T13:34:49.193Z,56.71
2018-06-12T13:35:49.232Z,56.91
2018-06-12T13:36:49.181Z,56.33
2018-06-12T13:37:49.165Z,56.62
2018-06-12T13:38:49.223Z,56.71
2018-06-12T13:39:49.155Z,56.91
2018-06-12T13:40:49.172Z,56.91